Shinkyouwa Maru — JG5692 — position and weather

sailwx.info

Track history (hours):
 
Tides and Currents Weather Stations Pressure Air Temp Water Temp Dewpoint Dewpoint Depression Visibility Wind Speed Wind Dir Waves Ship Positions

Shinkyouwa Maru

Last reported at 2017-Sep-22 02:00 UTC. Time now 2017-Sep-23 23:44 UTC.
Position N 35°33' E 140°02'.

Length 104 m; draft 5.2 m.

Type: Ship (hazmat cat A). MMSI: 431101018.

Date/timePositionNaut miles runAvg speedWind from/ knotsBaromVisibWave heightAir tempDewpointWater temp
2017-Sep-22 02:00N 35°33' E 140°02'0 0.0
2017-Sep-21 18:39N 35°33' E 140°02'0 0.0
2017-Sep-21 18:27N 35°33' E 140°02'0 0.0
2017-Sep-21 18:00N 35°33' E 140°02'0 0.0
2017-Sep-21 16:54N 35°33' E 140°02'0 0.0
2017-Sep-21 16:24N 35°33' E 140°02'0 0.0
2017-Sep-21 16:00N 35°33' E 140°02'0 0.1
2017-Sep-21 15:03N 35°33' E 140°02'0 0.0
2017-Sep-21 14:54N 35°33' E 140°02'0 0.1
2017-Sep-21 14:21N 35°33' E 140°02'0 0.0
2017-Sep-21 14:00N 35°33' E 140°02'0 0.0
2017-Sep-21 13:21N 35°33' E 140°02'0 0.0
2017-Sep-21 12:00N 35°33' E 140°02'0 0.0
2017-Sep-21 11:30N 35°33' E 140°02'0 0.0
2017-Sep-21 11:00N 35°33' E 140°02'0 0.0
2017-Sep-21 10:24N 35°33' E 140°02'0 0.1
2017-Sep-21 10:00N 35°33' E 140°02'1 0.2
2017-Sep-21 03:45N 35°32' E 140°03'0 0.2
2017-Sep-21 03:30N 35°32' E 140°03'4 8.5
2017-Sep-21 03:00N 35°32' E 139°58'713.3
2017-Sep-21 02:30N 35°28' E 139°51'713.6
2017-Sep-21 02:00N 35°23' E 139°46'611.9
2017-Sep-21 01:30N 35°17' E 139°45'612.3
2017-Sep-21 01:01N 35°11' E 139°47'714.2
2017-Sep-21 00:31N 35°04' E 139°45'713.9
2017-Sep-21 00:00N 34°60' E 139°38'235 7.3
2017-Sep-19 15:54N 34°05' E 135°00'615.2
2017-Sep-19 15:30N 34°11' E 134°59'1015.6
2017-Sep-19 14:52N 34°21' E 134°59'615.6
2017-Sep-19 14:30N 34°27' E 135°01'715.0
2017-Sep-19 14:00N 34°34' E 135°03'611.1
2017-Sep-19 13:30N 34°36' E 134°57'5 0.1
2017-Sep-18 00:36N 34°35' E 134°51'212.5
2017-Sep-18 00:28N 34°35' E 134°53'612.5
2017-Sep-18 00:00N 34°38' E 134°59'713.8
2017-Sep-17 23:30N 34°35' E 135°07'612.5
2017-Sep-17 23:00N 34°30' E 135°12'4 6.7
2017-Sep-17 22:27N 34°28' E 135°16'0 0.1
2017-Sep-17 21:51N 34°28' E 135°16'0 0.0
2017-Sep-17 21:22N 34°28' E 135°16'0 0.0
2017-Sep-17 20:57N 34°28' E 135°16'0 0.1
2017-Sep-17 20:22N 34°28' E 135°16'0 0.1
2017-Sep-17 19:57N 34°28' E 135°16'0 0.0
2017-Sep-17 19:21N 34°28' E 135°16'0 0.0
2017-Sep-17 18:57N 34°28' E 135°16'0 0.0
2017-Sep-17 18:27N 34°28' E 135°16'0 0.0
2017-Sep-17 17:57N 34°28' E 135°16'0 0.0
2017-Sep-17 17:27N 34°28' E 135°16'0 0.0
2017-Sep-17 16:58N 34°28' E 135°16'0 0.0
2017-Sep-17 16:27N 34°28' E 135°16'0 0.1
2017-Sep-17 15:52N 34°28' E 135°16'0 0.1
2017-Sep-17 15:28N 34°28' E 135°16'0 0.0
2017-Sep-17 14:57N 34°29' E 135°16'0 0.0
2017-Sep-17 14:28N 34°28' E 135°16'0 0.1
2017-Sep-17 13:03N 34°29' E 135°16'0 0.1
2017-Sep-17 12:57N 34°29' E 135°16'0 0.1
2017-Sep-17 12:28N 34°29' E 135°16'0 0.0
2017-Sep-17 11:57N 34°29' E 135°16'0 0.2
2017-Sep-17 11:21N 34°28' E 135°16'0 0.0
2017-Sep-17 10:46N 34°28' E 135°16'0 0.0
2017-Sep-17 10:10N 34°28' E 135°16'0 0.0
2017-Sep-17 09:45N 34°28' E 135°16'0 0.0
2017-Sep-17 09:15N 34°28' E 135°16'0 0.0
2017-Sep-17 08:57N 34°28' E 135°16'0 0.0
2017-Sep-17 07:45N 34°28' E 135°16'0 0.0
2017-Sep-17 06:21N 34°28' E 135°16'0 0.0
2017-Sep-17 05:39N 34°28' E 135°16'0 0.0
2017-Sep-17 04:33N 34°28' E 135°16'0 0.1
2017-Sep-17 04:27N 34°28' E 135°16'0 0.0
2017-Sep-17 03:57N 34°28' E 135°16'0 0.0
2017-Sep-17 01:39N 34°28' E 135°16'0 0.0
2017-Sep-16 23:45N 34°28' E 135°16'0 0.0
2017-Sep-16 23:15N 34°28' E 135°16'0 0.0
2017-Sep-16 21:51N 34°28' E 135°16'0 0.0
2017-Sep-16 20:39N 34°28' E 135°16'0 0.0
2017-Sep-16 18:45N 34°28' E 135°16'0 0.0
2017-Sep-16 18:27N 34°28' E 135°16'0 0.0
2017-Sep-16 17:57N 34°28' E 135°16'0 0.0
2017-Sep-16 17:09N 34°28' E 135°16'0 0.0
2017-Sep-16 14:51N 34°28' E 135°16'0 0.0
2017-Sep-16 12:33N 34°28' E 135°16'0 0.0
2017-Sep-16 08:19N 34°28' E 135°16'2 6.7
2017-Sep-16 08:00N 34°31' E 135°16'714.8
2017-Sep-16 07:30N 34°36' E 135°22'3 0.4
2017-Sep-15 22:01N 34°35' E 135°26'0 0.5
2017-Sep-15 22:00N 34°35' E 135°26'2 3.7
2017-Sep-15 21:30N 34°36' E 135°24'2 4.0
2017-Sep-15 21:00N 34°35' E 135°22'0 0.2
2017-Sep-15 20:26N 34°35' E 135°22'0 0.0
2017-Sep-15 19:38N 34°35' E 135°22'0 0.0
2017-Sep-15 19:26N 34°35' E 135°22'0 0.0
2017-Sep-15 18:56N 34°35' E 135°22'0 0.0
2017-Sep-15 18:26N 34°35' E 135°22'0 0.0
2017-Sep-15 16:26N 34°35' E 135°22'0 0.1
2017-Sep-15 15:44N 34°35' E 135°22'0 0.0
2017-Sep-15 15:26N 34°35' E 135°22'0 0.0
2017-Sep-15 14:50N 34°35' E 135°22'0 0.0
2017-Sep-15 14:28N 34°35' E 135°22'3 6.2
2017-Sep-15 14:00N 34°33' E 135°19'612.5
2017-Sep-15 13:30N 34°29' E 135°14'712.9
2017-Sep-15 12:58N 34°25' E 135°08'912.5
2017-Sep-15 12:15N 34°18' E 134°60'311.9
2017-Sep-15 12:00N 34°15' E 134°59'713.2
2017-Sep-15 11:30N 34°09' E 135°00'22611.1
2017-Sep-14 15:03N 34°58' E 139°28'113.5
2017-Sep-14 14:58N 34°59' E 139°29'713.9
2017-Sep-14 14:29N 35°03' E 139°36'714.2
2017-Sep-14 14:00N 35°07' E 139°42'714.0
2017-Sep-14 13:30N 35°14' E 139°46'612.7
2017-Sep-14 13:01N 35°19' E 139°43'713.1
2017-Sep-14 12:31N 35°26' E 139°45'714.4
2017-Sep-14 12:00N 35°30' E 139°52'9 0.7
2017-Sep-13 23:22N 35°34' E 140°02'1 2.4
2017-Sep-13 23:00N 35°34' E 140°01'510.9
2017-Sep-13 22:30N 35°31' E 139°55'612.7
2017-Sep-13 22:00N 35°27' E 139°49'713.4
2017-Sep-13 21:30N 35°21' E 139°45'611.9
2017-Sep-13 21:00N 35°15' E 139°47'713.7
2017-Sep-13 20:30N 35°08' E 139°47'714.5
2017-Sep-13 20:00N 35°01' E 139°44'713.2
2017-Sep-13 19:30N 34°55' E 139°45'1213.0
2017-Sep-13 18:34N 34°55' E 140°00'  
Track history (hours):
 
Tides and Currents Weather Stations Pressure Air Temp Water Temp Dewpoint Dewpoint Depression Visibility Wind Speed Wind Dir Waves Ship Positions

Shinkyouwa Maru

Last reported at 2017-Sep-22 02:00 UTC. Time now 2017-Sep-23 23:44 UTC.
Position N 35°33' E 140°02'.

Length 104 m; draft 5.2 m.

Type: Ship (hazmat cat A). MMSI: 431101018.

Date/timePositionNaut miles runAvg speedWind from/ knotsBaromVisibWave heightAir tempDewpointWater temp
2017-Sep-22 02:00N 35°33' E 140°02'0 0.0
2017-Sep-21 18:39N 35°33' E 140°02'0 0.0
2017-Sep-21 18:27N 35°33' E 140°02'0 0.0
2017-Sep-21 18:00N 35°33' E 140°02'0 0.0
2017-Sep-21 16:54N 35°33' E 140°02'0 0.0
2017-Sep-21 16:24N 35°33' E 140°02'0 0.0
2017-Sep-21 16:00N 35°33' E 140°02'0 0.1
2017-Sep-21 15:03N 35°33' E 140°02'0 0.0
2017-Sep-21 14:54N 35°33' E 140°02'0 0.1
2017-Sep-21 14:21N 35°33' E 140°02'0 0.0
2017-Sep-21 14:00N 35°33' E 140°02'0 0.0
2017-Sep-21 13:21N 35°33' E 140°02'0 0.0
2017-Sep-21 12:00N 35°33' E 140°02'0 0.0
2017-Sep-21 11:30N 35°33' E 140°02'0 0.0
2017-Sep-21 11:00N 35°33' E 140°02'0 0.0
2017-Sep-21 10:24N 35°33' E 140°02'0 0.1
2017-Sep-21 10:00N 35°33' E 140°02'1 0.2
2017-Sep-21 03:45N 35°32' E 140°03'0 0.2
2017-Sep-21 03:30N 35°32' E 140°03'4 8.5
2017-Sep-21 03:00N 35°32' E 139°58'713.3
2017-Sep-21 02:30N 35°28' E 139°51'713.6
2017-Sep-21 02:00N 35°23' E 139°46'611.9
2017-Sep-21 01:30N 35°17' E 139°45'612.3
2017-Sep-21 01:01N 35°11' E 139°47'714.2
2017-Sep-21 00:31N 35°04' E 139°45'713.9
2017-Sep-21 00:00N 34°60' E 139°38'235 7.3
2017-Sep-19 15:54N 34°05' E 135°00'615.2
2017-Sep-19 15:30N 34°11' E 134°59'1015.6
2017-Sep-19 14:52N 34°21' E 134°59'615.6
2017-Sep-19 14:30N 34°27' E 135°01'715.0
2017-Sep-19 14:00N 34°34' E 135°03'611.1
2017-Sep-19 13:30N 34°36' E 134°57'5 0.1
2017-Sep-18 00:36N 34°35' E 134°51'212.5
2017-Sep-18 00:28N 34°35' E 134°53'612.5
2017-Sep-18 00:00N 34°38' E 134°59'713.8
2017-Sep-17 23:30N 34°35' E 135°07'612.5
2017-Sep-17 23:00N 34°30' E 135°12'4 6.7
2017-Sep-17 22:27N 34°28' E 135°16'0 0.1
2017-Sep-17 21:51N 34°28' E 135°16'0 0.0
2017-Sep-17 21:22N 34°28' E 135°16'0 0.0
2017-Sep-17 20:57N 34°28' E 135°16'0 0.1
2017-Sep-17 20:22N 34°28' E 135°16'0 0.1
2017-Sep-17 19:57N 34°28' E 135°16'0 0.0
2017-Sep-17 19:21N 34°28' E 135°16'0 0.0
2017-Sep-17 18:57N 34°28' E 135°16'0 0.0
2017-Sep-17 18:27N 34°28' E 135°16'0 0.0
2017-Sep-17 17:57N 34°28' E 135°16'0 0.0
2017-Sep-17 17:27N 34°28' E 135°16'0 0.0
2017-Sep-17 16:58N 34°28' E 135°16'0 0.0
2017-Sep-17 16:27N 34°28' E 135°16'0 0.1
2017-Sep-17 15:52N 34°28' E 135°16'0 0.1
2017-Sep-17 15:28N 34°28' E 135°16'0 0.0
2017-Sep-17 14:57N 34°29' E 135°16'0 0.0
2017-Sep-17 14:28N 34°28' E 135°16'0 0.1
2017-Sep-17 13:03N 34°29' E 135°16'0 0.1
2017-Sep-17 12:57N 34°29' E 135°16'0 0.1
2017-Sep-17 12:28N 34°29' E 135°16'0 0.0
2017-Sep-17 11:57N 34°29' E 135°16'0 0.2
2017-Sep-17 11:21N 34°28' E 135°16'0 0.0
2017-Sep-17 10:46N 34°28' E 135°16'0 0.0
2017-Sep-17 10:10N 34°28' E 135°16'0 0.0
2017-Sep-17 09:45N 34°28' E 135°16'0 0.0
2017-Sep-17 09:15N 34°28' E 135°16'0 0.0
2017-Sep-17 08:57N 34°28' E 135°16'0 0.0
2017-Sep-17 07:45N 34°28' E 135°16'0 0.0
2017-Sep-17 06:21N 34°28' E 135°16'0 0.0
2017-Sep-17 05:39N 34°28' E 135°16'0 0.0
2017-Sep-17 04:33N 34°28' E 135°16'0 0.1
2017-Sep-17 04:27N 34°28' E 135°16'0 0.0
2017-Sep-17 03:57N 34°28' E 135°16'0 0.0
2017-Sep-17 01:39N 34°28' E 135°16'0 0.0
2017-Sep-16 23:45N 34°28' E 135°16'0 0.0
2017-Sep-16 23:15N 34°28' E 135°16'0 0.0
2017-Sep-16 21:51N 34°28' E 135°16'0 0.0
2017-Sep-16 20:39N 34°28' E 135°16'0 0.0
2017-Sep-16 18:45N 34°28' E 135°16'0 0.0
2017-Sep-16 18:27N 34°28' E 135°16'0 0.0
2017-Sep-16 17:57N 34°28' E 135°16'0 0.0
2017-Sep-16 17:09N 34°28' E 135°16'0 0.0
2017-Sep-16 14:51N 34°28' E 135°16'0 0.0
2017-Sep-16 12:33N 34°28' E 135°16'0 0.0
2017-Sep-16 08:19N 34°28' E 135°16'2 6.7
2017-Sep-16 08:00N 34°31' E 135°16'714.8
2017-Sep-16 07:30N 34°36' E 135°22'3 0.4
2017-Sep-15 22:01N 34°35' E 135°26'0 0.5
2017-Sep-15 22:00N 34°35' E 135°26'2 3.7
2017-Sep-15 21:30N 34°36' E 135°24'2 4.0
2017-Sep-15 21:00N 34°35' E 135°22'0 0.2
2017-Sep-15 20:26N 34°35' E 135°22'0 0.0
2017-Sep-15 19:38N 34°35' E 135°22'0 0.0
2017-Sep-15 19:26N 34°35' E 135°22'0 0.0
2017-Sep-15 18:56N 34°35' E 135°22'0 0.0
2017-Sep-15 18:26N 34°35' E 135°22'0 0.0
2017-Sep-15 16:26N 34°35' E 135°22'0 0.1
2017-Sep-15 15:44N 34°35' E 135°22'0 0.0
2017-Sep-15 15:26N 34°35' E 135°22'0 0.0
2017-Sep-15 14:50N 34°35' E 135°22'0 0.0
2017-Sep-15 14:28N 34°35' E 135°22'3 6.2
2017-Sep-15 14:00N 34°33' E 135°19'612.5
2017-Sep-15 13:30N 34°29' E 135°14'712.9
2017-Sep-15 12:58N 34°25' E 135°08'912.5
2017-Sep-15 12:15N 34°18' E 134°60'311.9
2017-Sep-15 12:00N 34°15' E 134°59'713.2
2017-Sep-15 11:30N 34°09' E 135°00'22611.1
2017-Sep-14 15:03N 34°58' E 139°28'113.5
2017-Sep-14 14:58N 34°59' E 139°29'713.9
2017-Sep-14 14:29N 35°03' E 139°36'714.2
2017-Sep-14 14:00N 35°07' E 139°42'714.0
2017-Sep-14 13:30N 35°14' E 139°46'612.7
2017-Sep-14 13:01N 35°19' E 139°43'713.1
2017-Sep-14 12:31N 35°26' E 139°45'714.4
2017-Sep-14 12:00N 35°30' E 139°52'9 0.7
2017-Sep-13 23:22N 35°34' E 140°02'1 2.4
2017-Sep-13 23:00N 35°34' E 140°01'510.9
2017-Sep-13 22:30N 35°31' E 139°55'612.7
2017-Sep-13 22:00N 35°27' E 139°49'713.4
2017-Sep-13 21:30N 35°21' E 139°45'611.9
2017-Sep-13 21:00N 35°15' E 139°47'713.7
2017-Sep-13 20:30N 35°08' E 139°47'714.5
2017-Sep-13 20:00N 35°01' E 139°44'713.2
2017-Sep-13 19:30N 34°55' E 139°45'1213.0
2017-Sep-13 18:34N 34°55' E 140°00'  

Dump ship's entire track history